sensor_id;sensor_type;location;lat;lon;timestamp;pressure;altitude;pressure_sealevel;temperature;humidity
71907;BME280;59781;52.090;5.030;2023-04-08T00:01:26;102254.63;;;8.45;100.00
71907;BME280;59781;52.090;5.030;2023-04-08T00:03:52;102247.53;;;8.32;100.00
71907;BME280;59781;52.090;5.030;2023-04-08T00:06:18;102253.69;;;8.46;100.00
71907;BME280;59781;52.090;5.030;2023-04-08T00:08:43;102260.84;;;8.34;100.00
71907;BME280;59781;52.090;5.030;2023-04-08T00:11:09;102253.19;;;8.41;100.00
71907;BME280;59781;52.090;5.030;2023-04-08T00:13:35;102249.75;;;8.27;100.00
71907;BME280;59781;52.090;5.030;2023-04-08T00:16:01;102251.44;;;8.17;100.00
71907;BME280;59781;52.090;5.030;2023-04-08T00:18:27;102256.44;;;8.11;100.00
71907;BME280;59781;52.090;5.030;2023-04-08T00:20:53;102250.81;;;7.91;100.00
71907;BME280;59781;52.090;5.030;2023-04-08T00:23:21;102250.25;;;7.75;100.00
71907;BME280;59781;52.090;5.030;2023-04-08T00:25:47;102240.25;;;7.66;100.00
71907;BME280;59781;52.090;5.030;2023-04-08T00:28:13;102253.81;;;7.75;100.00
71907;BME280;59781;52.090;5.030;2023-04-08T00:30:38;102246.47;;;7.66;100.00
71907;BME280;59781;52.090;5.030;2023-04-08T00:33:04;102252.03;;;7.87;100.00
71907;BME280;59781;52.090;5.030;2023-04-08T00:35:30;102247.78;;;7.50;100.00
71907;BME280;59781;52.090;5.030;2023-04-08T00:37:55;102254.09;;;7.48;100.00
71907;BME280;59781;52.090;5.030;2023-04-08T00:40:24;102256.44;;;7.53;100.00
71907;BME280;59781;52.090;5.030;2023-04-08T00:42:50;102252.78;;;7.54;100.00
71907;BME280;59781;52.090;5.030;2023-04-08T00:45:15;102252.41;;;7.47;100.00
71907;BME280;59781;52.090;5.030;2023-04-08T00:47:41;102250.50;;;7.37;100.00
71907;BME280;59781;52.090;5.030;2023-04-08T00:50:08;102252.16;;;7.27;100.00
71907;BME280;59781;52.090;5.030;2023-04-08T00:52:35;102248.44;;;7.29;100.00
71907;BME280;59781;52.090;5.030;2023-04-08T00:55:01;102254.69;;;7.17;100.00
71907;BME280;59781;52.090;5.030;2023-04-08T00:57:27;102258.97;;;7.19;100.00
71907;BME280;59781;52.090;5.030;2023-04-08T00:59:53;102262.00;;;7.15;100.00
71907;BME280;59781;52.090;5.030;2023-04-08T01:05:29;102265.94;;;7.22;100.00
71907;BME280;59781;52.090;5.030;2023-04-08T01:08:06;102263.13;;;7.24;100.00
71907;BME280;59781;52.090;5.030;2023-04-08T01:10:36;102267.06;;;7.07;100.00
71907;BME280;59781;52.090;5.030;2023-04-08T01:13:11;102266.66;;;7.00;100.00
71907;BME280;59781;52.090;5.030;2023-04-08T01:15:41;102267.53;;;7.01;100.00
71907;BME280;59781;52.090;5.030;2023-04-08T01:18:12;102270.56;;;7.20;100.00
71907;BME280;59781;52.090;5.030;2023-04-08T01:20:41;102268.59;;;7.22;100.00
71907;BME280;59781;52.090;5.030;2023-04-08T01:23:52;102267.97;;;7.78;100.00
71907;BME280;59781;52.090;5.030;2023-04-08T01:26:25;102272.38;;;7.19;100.00
71907;BME280;59781;52.090;5.030;2023-04-08T01:28:58;102273.66;;;6.90;100.00
71907;BME280;59781;52.090;5.030;2023-04-08T01:31:27;102282.50;;;6.79;100.00
71907;BME280;59781;52.090;5.030;2023-04-08T01:33:55;102280.78;;;6.66;100.00
71907;BME280;59781;52.090;5.030;2023-04-08T01:36:25;102297.00;;;6.88;100.00
71907;BME280;59781;52.090;5.030;2023-04-08T01:38:53;102293.34;;;7.02;100.00
71907;BME280;59781;52.090;5.030;2023-04-08T01:41:20;102296.59;;;7.18;100.00
71907;BME280;59781;52.090;5.030;2023-04-08T01:43:47;102291.47;;;7.15;100.00
71907;BME280;59781;52.090;5.030;2023-04-08T01:46:15;102289.06;;;7.23;100.00
71907;BME280;59781;52.090;5.030;2023-04-08T01:48:42;102289.75;;;7.14;100.00
71907;BME280;59781;52.090;5.030;2023-04-08T01:51:10;102290.97;;;7.10;100.00
71907;BME280;59781;52.090;5.030;2023-04-08T01:53:37;102293.56;;;6.99;100.00
71907;BME280;59781;52.090;5.030;2023-04-08T01:56:11;102291.75;;;7.23;100.00
71907;BME280;59781;52.090;5.030;2023-04-08T01:58:50;102293.19;;;7.40;100.00
71907;BME280;59781;52.090;5.030;2023-04-08T02:01:21;102287.94;;;7.38;100.00
71907;BME280;59781;52.090;5.030;2023-04-08T02:03:50;102293.22;;;7.51;100.00
71907;BME280;59781;52.090;5.030;2023-04-08T02:06:24;102289.41;;;7.42;100.00
71907;BME280;59781;52.090;5.030;2023-04-08T02:08:55;102297.09;;;7.23;100.00
71907;BME280;59781;52.090;5.030;2023-04-08T02:11:21;102290.31;;;7.06;100.00
71907;BME280;59781;52.090;5.030;2023-04-08T02:13:48;102301.78;;;7.08;100.00
71907;BME280;59781;52.090;5.030;2023-04-08T02:16:15;102290.78;;;7.00;100.00
71907;BME280;59781;52.090;5.030;2023-04-08T02:18:55;102297.22;;;7.22;100.00
71907;BME280;59781;52.090;5.030;2023-04-08T02:21:46;102297.34;;;7.20;100.00
71907;BME280;59781;52.090;5.030;2023-04-08T02:31:20;102295.59;;;6.95;100.00
71907;BME280;59781;52.090;5.030;2023-04-08T02:33:49;102297.78;;;6.90;100.00
71907;BME280;59781;52.090;5.030;2023-04-08T02:36:20;102298.41;;;6.94;100.00
71907;BME280;59781;52.090;5.030;2023-04-08T02:38:47;102306.00;;;6.87;100.00
71907;BME280;59781;52.090;5.030;2023-04-08T02:41:15;102308.25;;;6.93;100.00
71907;BME280;59781;52.090;5.030;2023-04-08T02:43:41;102309.97;;;6.94;100.00
71907;BME280;59781;52.090;5.030;2023-04-08T02:46:10;102324.38;;;6.80;100.00
71907;BME280;59781;52.090;5.030;2023-04-08T02:48:36;102313.00;;;6.77;100.00
71907;BME280;59781;52.090;5.030;2023-04-08T02:51:02;102323.34;;;6.94;100.00
71907;BME280;59781;52.090;5.030;2023-04-08T02:53:27;102314.69;;;6.78;100.00
71907;BME280;59781;52.090;5.030;2023-04-08T02:55:53;102315.28;;;6.57;100.00
71907;BME280;59781;52.090;5.030;2023-04-08T02:58:19;102313.09;;;6.75;100.00
71907;BME280;59781;52.090;5.030;2023-04-08T03:00:45;102317.00;;;6.71;100.00
71907;BME280;59781;52.090;5.030;2023-04-08T03:03:11;102313.97;;;6.76;100.00
71907;BME280;59781;52.090;5.030;2023-04-08T03:05:36;102316.53;;;6.77;100.00
71907;BME280;59781;52.090;5.030;2023-04-08T03:08:02;102318.22;;;6.91;100.00
71907;BME280;59781;52.090;5.030;2023-04-08T03:10:28;102322.75;;;6.78;100.00
71907;BME280;59781;52.090;5.030;2023-04-08T03:12:53;102318.16;;;6.80;100.00
71907;BME280;59781;52.090;5.030;2023-04-08T03:15:19;102323.69;;;6.77;100.00
71907;BME280;59781;52.090;5.030;2023-04-08T03:17:45;102318.44;;;6.88;100.00
71907;BME280;59781;52.090;5.030;2023-04-08T03:20:11;102330.78;;;6.78;100.00
71907;BME280;59781;52.090;5.030;2023-04-08T03:22:37;102321.09;;;7.01;100.00
71907;BME280;59781;52.090;5.030;2023-04-08T03:25:03;102316.72;;;6.87;100.00
71907;BME280;59781;52.090;5.030;2023-04-08T03:27:28;102318.44;;;6.88;100.00
71907;BME280;59781;52.090;5.030;2023-04-08T03:29:54;102323.88;;;6.99;100.00
71907;BME280;59781;52.090;5.030;2023-04-08T03:32:22;102315.97;;;7.22;100.00
71907;BME280;59781;52.090;5.030;2023-04-08T03:34:48;102329.75;;;7.04;100.00
71907;BME280;59781;52.090;5.030;2023-04-08T03:37:18;102322.53;;;6.81;100.00
71907;BME280;59781;52.090;5.030;2023-04-08T03:39:44;102315.56;;;6.91;100.00
71907;BME280;59781;52.090;5.030;2023-04-08T03:42:12;102315.75;;;7.01;100.00
71907;BME280;59781;52.090;5.030;2023-04-08T03:44:38;102327.00;;;6.93;100.00
71907;BME280;59781;52.090;5.030;2023-04-08T03:47:03;102322.84;;;6.89;100.00
71907;BME280;59781;52.090;5.030;2023-04-08T03:49:29;102323.59;;;6.91;100.00
71907;BME280;59781;52.090;5.030;2023-04-08T03:51:55;102331.19;;;6.84;100.00
71907;BME280;59781;52.090;5.030;2023-04-08T03:54:21;102339.00;;;6.87;100.00
71907;BME280;59781;52.090;5.030;2023-04-08T03:56:48;102333.09;;;6.95;100.00
71907;BME280;59781;52.090;5.030;2023-04-08T03:59:14;102330.22;;;6.85;100.00
71907;BME280;59781;52.090;5.030;2023-04-08T04:01:40;102329.38;;;6.85;100.00
71907;BME280;59781;52.090;5.030;2023-04-08T04:04:06;102337.06;;;7.02;100.00
71907;BME280;59781;52.090;5.030;2023-04-08T04:06:31;102329.97;;;7.01;100.00
71907;BME280;59781;52.090;5.030;2023-04-08T04:08:57;102336.56;;;7.21;100.00
71907;BME280;59781;52.090;5.030;2023-04-08T04:11:23;102338.94;;;7.37;100.00
71907;BME280;59781;52.090;5.030;2023-04-08T04:13:48;102338.63;;;7.05;100.00
71907;BME280;59781;52.090;5.030;2023-04-08T04:16:14;102346.25;;;7.35;100.00
71907;BME280;59781;52.090;5.030;2023-04-08T04:18:40;102345.03;;;7.15;100.00
71907;BME280;59781;52.090;5.030;2023-04-08T04:21:06;102341.19;;;7.19;100.00
71907;BME280;59781;52.090;5.030;2023-04-08T04:23:32;102349.59;;;7.26;100.00
71907;BME280;59781;52.090;5.030;2023-04-08T04:25:57;102340.09;;;7.22;100.00
71907;BME280;59781;52.090;5.030;2023-04-08T04:28:23;102354.81;;;7.40;100.00
71907;BME280;59781;52.090;5.030;2023-04-08T04:30:51;102356.34;;;7.31;100.00
71907;BME280;59781;52.090;5.030;2023-04-08T04:33:17;102357.94;;;7.34;100.00
71907;BME280;59781;52.090;5.030;2023-04-08T04:35:42;102360.44;;;7.24;100.00
71907;BME280;59781;52.090;5.030;2023-04-08T04:38:08;102369.94;;;7.41;100.00
71907;BME280;59781;52.090;5.030;2023-04-08T04:40:39;102367.50;;;7.25;100.00
71907;BME280;59781;52.090;5.030;2023-04-08T04:43:05;102378.28;;;7.49;100.00
71907;BME280;59781;52.090;5.030;2023-04-08T04:45:31;102375.56;;;7.25;100.00
71907;BME280;59781;52.090;5.030;2023-04-08T04:47:57;102377.75;;;7.44;100.00
71907;BME280;59781;52.090;5.030;2023-04-08T04:50:22;102379.75;;;7.29;100.00
71907;BME280;59781;52.090;5.030;2023-04-08T04:52:48;102392.38;;;7.27;100.00
71907;BME280;59781;52.090;5.030;2023-04-08T04:55:14;102390.72;;;7.37;100.00
71907;BME280;59781;52.090;5.030;2023-04-08T04:57:40;102395.03;;;7.40;100.00
71907;BME280;59781;52.090;5.030;2023-04-08T05:00:07;102389.13;;;7.35;100.00
71907;BME280;59781;52.090;5.030;2023-04-08T05:02:33;102399.31;;;7.42;100.00
71907;BME280;59781;52.090;5.030;2023-04-08T05:04:59;102393.09;;;7.42;100.00
71907;BME280;59781;52.090;5.030;2023-04-08T05:07:25;102393.41;;;7.37;100.00
71907;BME280;59781;52.090;5.030;2023-04-08T05:09:51;102396.09;;;7.37;100.00
71907;BME280;59781;52.090;5.030;2023-04-08T05:12:16;102399.13;;;7.33;100.00
71907;BME280;59781;52.090;5.030;2023-04-08T05:14:44;102406.38;;;7.43;100.00
71907;BME280;59781;52.090;5.030;2023-04-08T05:17:11;102410.47;;;7.36;100.00
71907;BME280;59781;52.090;5.030;2023-04-08T05:19:36;102406.25;;;7.45;100.00
71907;BME280;59781;52.090;5.030;2023-04-08T05:22:02;102404.53;;;7.44;100.00
71907;BME280;59781;52.090;5.030;2023-04-08T05:24:28;102415.38;;;7.42;100.00
71907;BME280;59781;52.090;5.030;2023-04-08T05:26:53;102420.06;;;7.52;100.00
71907;BME280;59781;52.090;5.030;2023-04-08T05:29:19;102416.19;;;7.56;100.00
71907;BME280;59781;52.090;5.030;2023-04-08T05:31:46;102409.75;;;7.58;100.00
71907;BME280;59781;52.090;5.030;2023-04-08T05:34:12;102413.56;;;7.43;100.00
71907;BME280;59781;52.090;5.030;2023-04-08T05:36:37;102412.28;;;7.48;100.00
71907;BME280;59781;52.090;5.030;2023-04-08T05:39:03;102408.72;;;7.48;100.00
71907;BME280;59781;52.090;5.030;2023-04-08T05:41:29;102420.50;;;7.45;100.00
71907;BME280;59781;52.090;5.030;2023-04-08T05:43:55;102418.53;;;7.60;100.00
71907;BME280;59781;52.090;5.030;2023-04-08T05:46:20;102425.66;;;7.72;100.00
71907;BME280;59781;52.090;5.030;2023-04-08T05:48:46;102426.94;;;7.80;100.00
71907;BME280;59781;52.090;5.030;2023-04-08T05:51:13;102428.88;;;7.78;100.00
71907;BME280;59781;52.090;5.030;2023-04-08T05:53:40;102430.72;;;7.77;100.00
71907;BME280;59781;52.090;5.030;2023-04-08T05:56:06;102435.38;;;7.62;100.00
71907;BME280;59781;52.090;5.030;2023-04-08T05:58:32;102433.97;;;7.69;100.00
71907;BME280;59781;52.090;5.030;2023-04-08T06:00:58;102431.59;;;7.41;100.00
71907;BME280;59781;52.090;5.030;2023-04-08T06:03:23;102433.44;;;7.28;100.00
71907;BME280;59781;52.090;5.030;2023-04-08T06:05:49;102430.25;;;7.46;100.00
71907;BME280;59781;52.090;5.030;2023-04-08T06:08:15;102437.81;;;7.65;100.00
71907;BME280;59781;52.090;5.030;2023-04-08T07:49:18;102493.34;;;11.41;100.00
71907;BME280;59781;52.090;5.030;2023-04-08T07:55:39;102500.66;;;11.69;100.00
71907;BME280;59781;52.090;5.030;2023-04-08T08:18:57;102512.16;;;12.79;100.00
71907;BME280;59781;52.090;5.030;2023-04-08T08:31:42;102508.81;;;13.79;100.00
71907;BME280;59781;52.090;5.030;2023-04-08T08:34:23;102516.84;;;14.16;100.00
71907;BME280;59781;52.090;5.030;2023-04-08T08:36:48;102513.81;;;14.01;100.00
71907;BME280;59781;52.090;5.030;2023-04-08T08:39:14;102518.22;;;14.02;100.00
71907;BME280;59781;52.090;5.030;2023-04-08T08:41:40;102513.94;;;13.82;100.00
71907;BME280;59781;52.090;5.030;2023-04-08T08:44:06;102512.13;;;14.18;100.00
71907;BME280;59781;52.090;5.030;2023-04-08T08:46:33;102515.97;;;14.33;100.00
71907;BME280;59781;52.090;5.030;2023-04-08T08:48:59;102524.22;;;13.78;100.00
71907;BME280;59781;52.090;5.030;2023-04-08T08:51:26;102517.72;;;14.17;100.00
71907;BME280;59781;52.090;5.030;2023-04-08T08:53:52;102524.25;;;14.14;100.00
71907;BME280;59781;52.090;5.030;2023-04-08T08:56:18;102525.88;;;14.25;100.00
71907;BME280;59781;52.090;5.030;2023-04-08T08:58:44;102526.06;;;13.51;100.00
71907;BME280;59781;52.090;5.030;2023-04-08T09:01:31;102521.97;;;14.19;100.00
71907;BME280;59781;52.090;5.030;2023-04-08T09:04:18;102532.47;;;14.22;100.00
71907;BME280;59781;52.090;5.030;2023-04-08T09:06:48;102535.41;;;14.11;100.00
71907;BME280;59781;52.090;5.030;2023-04-08T09:12:12;102536.13;;;15.36;98.11
71907;BME280;59781;52.090;5.030;2023-04-08T09:14:39;102537.44;;;15.58;100.00
71907;BME280;59781;52.090;5.030;2023-04-08T09:17:05;102528.97;;;15.61;92.33
71907;BME280;59781;52.090;5.030;2023-04-08T09:19:30;102540.34;;;15.05;86.70
71907;BME280;59781;52.090;5.030;2023-04-08T09:22:08;102530.22;;;15.41;91.21
71907;BME280;59781;52.090;5.030;2023-04-08T09:24:36;102537.06;;;15.87;87.86
71907;BME280;59781;52.090;5.030;2023-04-08T09:27:05;102531.28;;;15.82;83.19
71907;BME280;59781;52.090;5.030;2023-04-08T09:29:30;102535.38;;;15.86;80.51
71907;BME280;59781;52.090;5.030;2023-04-08T09:32:00;102531.56;;;16.29;79.28
71907;BME280;59781;52.090;5.030;2023-04-08T09:34:29;102532.09;;;16.25;79.18
71907;BME280;59781;52.090;5.030;2023-04-08T09:36:56;102542.19;;;15.56;84.26
71907;BME280;59781;52.090;5.030;2023-04-08T09:39:22;102537.69;;;16.40;89.49
71907;BME280;59781;52.090;5.030;2023-04-08T09:41:49;102533.47;;;16.53;79.87
71907;BME280;59781;52.090;5.030;2023-04-08T09:44:18;102532.13;;;16.98;75.31
71907;BME280;59781;52.090;5.030;2023-04-08T09:47:00;102534.28;;;17.27;74.04
71907;BME280;59781;52.090;5.030;2023-04-08T09:49:44;102536.34;;;16.60;77.47
71907;BME280;59781;52.090;5.030;2023-04-08T09:52:20;102539.09;;;16.52;80.62
71907;BME280;59781;52.090;5.030;2023-04-08T09:55:05;102545.38;;;16.44;75.14
71907;BME280;59781;52.090;5.030;2023-04-08T09:57:54;102539.97;;;17.01;78.74
71907;BME280;59781;52.090;5.030;2023-04-08T10:00:29;102533.13;;;17.22;70.75
71907;BME280;59781;52.090;5.030;2023-04-08T10:03:26;102544.44;;;16.11;75.70
71907;BME280;59781;52.090;5.030;2023-04-08T10:05:57;102538.41;;;16.66;73.64
71907;BME280;59781;52.090;5.030;2023-04-08T10:08:26;102528.16;;;16.27;74.62
71907;BME280;59781;52.090;5.030;2023-04-08T10:10:54;102533.16;;;16.97;67.61
71907;BME280;59781;52.090;5.030;2023-04-08T10:13:22;102523.19;;;17.45;64.19
71907;BME280;59781;52.090;5.030;2023-04-08T10:15:49;102529.66;;;17.36;66.39
71907;BME280;59781;52.090;5.030;2023-04-08T10:20:47;102533.88;;;17.46;68.88
71907;BME280;59781;52.090;5.030;2023-04-08T10:23:15;102532.56;;;17.34;64.68
71907;BME280;59781;52.090;5.030;2023-04-08T10:25:44;102523.75;;;18.33;63.45
71907;BME280;59781;52.090;5.030;2023-04-08T10:36:07;102528.81;;;17.35;57.80
71907;BME280;59781;52.090;5.030;2023-04-08T10:38:37;102521.25;;;18.01;63.80
71907;BME280;59781;52.090;5.030;2023-04-08T10:41:03;102516.09;;;17.75;58.80
71907;BME280;59781;52.090;5.030;2023-04-08T10:43:33;102525.25;;;17.90;55.89
71907;BME280;59781;52.090;5.030;2023-04-08T10:45:59;102517.78;;;17.76;58.02
71907;BME280;59781;52.090;5.030;2023-04-08T10:48:25;102523.78;;;17.08;57.94
71907;BME280;59781;52.090;5.030;2023-04-08T10:50:56;102521.88;;;17.16;53.77
71907;BME280;59781;52.090;5.030;2023-04-08T10:53:34;102521.56;;;17.67;55.06
71907;BME280;59781;52.090;5.030;2023-04-08T10:56:12;102521.47;;;17.52;51.11
71907;BME280;59781;52.090;5.030;2023-04-08T10:58:50;102519.84;;;16.61;55.21
71907;BME280;59781;52.090;5.030;2023-04-08T11:01:18;102510.81;;;17.26;59.96
71907;BME280;59781;52.090;5.030;2023-04-08T11:03:44;102505.97;;;17.53;53.72
71907;BME280;59781;52.090;5.030;2023-04-08T11:06:10;102513.38;;;18.06;49.18
71907;BME280;59781;52.090;5.030;2023-04-08T11:08:36;102503.69;;;17.72;54.25
71907;BME280;59781;52.090;5.030;2023-04-08T11:11:04;102510.22;;;17.94;48.71
71907;BME280;59781;52.090;5.030;2023-04-08T11:13:42;102508.84;;;15.80;53.68
71907;BME280;59781;52.090;5.030;2023-04-08T11:16:09;102513.81;;;17.39;53.12
71907;BME280;59781;52.090;5.030;2023-04-08T11:18:39;102515.88;;;17.37;52.82
71907;BME280;59781;52.090;5.030;2023-04-08T11:21:09;102514.72;;;18.33;51.79
71907;BME280;59781;52.090;5.030;2023-04-08T11:23:35;102514.63;;;16.76;50.49
71907;BME280;59781;52.090;5.030;2023-04-08T11:26:02;102507.63;;;16.66;52.09
71907;BME280;59781;52.090;5.030;2023-04-08T11:28:29;102514.13;;;16.73;52.47
71907;BME280;59781;52.090;5.030;2023-04-08T11:30:56;102506.75;;;17.69;52.61
71907;BME280;59781;52.090;5.030;2023-04-08T11:33:25;102510.50;;;17.13;51.00
71907;BME280;59781;52.090;5.030;2023-04-08T11:35:53;102505.13;;;18.68;54.58
71907;BME280;59781;52.090;5.030;2023-04-08T11:38:23;102510.03;;;18.19;47.46
71907;BME280;59781;52.090;5.030;2023-04-08T11:40:56;102512.78;;;17.88;45.98
71907;BME280;59781;52.090;5.030;2023-04-08T11:43:24;102510.22;;;17.94;46.50
71907;BME280;59781;52.090;5.030;2023-04-08T11:45:50;102517.47;;;18.33;47.89
71907;BME280;59781;52.090;5.030;2023-04-08T11:48:16;102514.78;;;18.48;48.62
71907;BME280;59781;52.090;5.030;2023-04-08T11:50:43;102515.28;;;17.97;47.46
71907;BME280;59781;52.090;5.030;2023-04-08T11:53:20;102508.97;;;18.28;45.13
71907;BME280;59781;52.090;5.030;2023-04-08T11:55:47;102502.75;;;19.17;46.28
71907;BME280;59781;52.090;5.030;2023-04-08T11:58:13;102503.31;;;18.75;46.70
71907;BME280;59781;52.090;5.030;2023-04-08T12:00:39;102506.19;;;19.85;44.70
71907;BME280;59781;52.090;5.030;2023-04-08T12:03:06;102511.53;;;18.29;49.07
71907;BME280;59781;52.090;5.030;2023-04-08T12:05:32;102507.66;;;18.70;47.61
71907;BME280;59781;52.090;5.030;2023-04-08T12:07:58;102504.16;;;19.13;47.64
71907;BME280;59781;52.090;5.030;2023-04-08T12:10:24;102497.09;;;19.48;48.01
71907;BME280;59781;52.090;5.030;2023-04-08T12:12:50;102509.69;;;18.45;44.61
71907;BME280;59781;52.090;5.030;2023-04-08T12:15:16;102511.38;;;19.06;45.19
71907;BME280;59781;52.090;5.030;2023-04-08T12:17:43;102509.28;;;18.79;46.88
71907;BME280;59781;52.090;5.030;2023-04-08T12:20:10;102513.94;;;18.01;47.31
71907;BME280;59781;52.090;5.030;2023-04-08T12:22:37;102510.88;;;17.96;47.21
71907;BME280;59781;52.090;5.030;2023-04-08T12:25:03;102500.88;;;18.20;47.59
71907;BME280;59781;52.090;5.030;2023-04-08T12:27:29;102500.72;;;18.59;44.82
71907;BME280;59781;52.090;5.030;2023-04-08T12:29:58;102511.34;;;18.54;46.69
71907;BME280;59781;52.090;5.030;2023-04-08T12:32:24;102505.78;;;18.85;47.42
71907;BME280;59781;52.090;5.030;2023-04-08T12:34:50;102511.09;;;19.16;46.52
71907;BME280;59781;52.090;5.030;2023-04-08T12:37:16;102505.84;;;19.14;46.03
71907;BME280;59781;52.090;5.030;2023-04-08T12:39:42;102503.47;;;19.26;46.38
71907;BME280;59781;52.090;5.030;2023-04-08T12:42:08;102506.34;;;19.47;47.79
71907;BME280;59781;52.090;5.030;2023-04-08T12:44:34;102510.41;;;18.84;49.23
71907;BME280;59781;52.090;5.030;2023-04-08T12:46:59;102503.41;;;19.34;49.33
71907;BME280;59781;52.090;5.030;2023-04-08T12:49:25;102506.50;;;19.75;48.97
71907;BME280;59781;52.090;5.030;2023-04-08T12:51:51;102491.34;;;20.09;48.82
71907;BME280;59781;52.090;5.030;2023-04-08T12:54:18;102501.97;;;19.24;51.11
71907;BME280;59781;52.090;5.030;2023-04-08T12:56:44;102497.09;;;19.19;50.60
71907;BME280;59781;52.090;5.030;2023-04-08T12:59:11;102508.34;;;18.86;50.76
71907;BME280;59781;52.090;5.030;2023-04-08T13:01:36;102494.22;;;18.83;50.77
71907;BME280;59781;52.090;5.030;2023-04-08T13:04:02;102510.34;;;19.37;50.21
71907;BME280;59781;52.090;5.030;2023-04-08T13:06:28;102505.53;;;18.80;49.92
71907;BME280;59781;52.090;5.030;2023-04-08T13:08:53;102508.56;;;19.44;54.90
71907;BME280;59781;52.090;5.030;2023-04-08T13:11:19;102503.13;;;18.77;52.16
71907;BME280;59781;52.090;5.030;2023-04-08T13:13:45;102509.69;;;18.68;50.01
71907;BME280;59781;52.090;5.030;2023-04-08T13:16:12;102509.44;;;17.77;51.23
71907;BME280;59781;52.090;5.030;2023-04-08T13:18:40;102507.25;;;17.09;55.07
71907;BME280;59781;52.090;5.030;2023-04-08T13:21:07;102504.41;;;17.50;55.32
71907;BME280;59781;52.090;5.030;2023-04-08T13:23:33;102510.81;;;17.18;56.33
71907;BME280;59781;52.090;5.030;2023-04-08T13:25:59;102493.69;;;18.19;55.16
71907;BME280;59781;52.090;5.030;2023-04-08T13:28:25;102491.06;;;18.48;53.28
71907;BME280;59781;52.090;5.030;2023-04-08T13:30:51;102493.50;;;18.89;51.69
71907;BME280;59781;52.090;5.030;2023-04-08T13:33:18;102492.47;;;18.44;49.32
71907;BME280;59781;52.090;5.030;2023-04-08T13:35:44;102493.81;;;18.25;54.21
71907;BME280;59781;52.090;5.030;2023-04-08T13:38:09;102483.72;;;18.11;51.58
71907;BME280;59781;52.090;5.030;2023-04-08T13:40:35;102487.53;;;17.63;50.95
71907;BME280;59781;52.090;5.030;2023-04-08T13:43:01;102480.44;;;17.45;52.78
71907;BME280;59781;52.090;5.030;2023-04-08T13:45:27;102491.97;;;17.00;54.44
71907;BME280;59781;52.090;5.030;2023-04-08T13:47:53;102487.06;;;16.87;51.38
71907;BME280;59781;52.090;5.030;2023-04-08T13:50:19;102485.00;;;17.53;44.57
71907;BME280;59781;52.090;5.030;2023-04-08T13:52:44;102490.50;;;17.84;45.11
71907;BME280;59781;52.090;5.030;2023-04-08T13:55:10;102487.88;;;18.22;45.67
71907;BME280;59781;52.090;5.030;2023-04-08T13:57:36;102488.75;;;17.60;44.21
71907;BME280;59781;52.090;5.030;2023-04-08T14:00:02;102496.63;;;17.86;43.58
71907;BME280;59781;52.090;5.030;2023-04-08T14:02:35;102497.69;;;18.08;43.27
71907;BME280;59781;52.090;5.030;2023-04-08T14:05:01;102499.16;;;16.85;46.96
71907;BME280;59781;52.090;5.030;2023-04-08T14:07:27;102501.59;;;17.83;48.46
71907;BME280;59781;52.090;5.030;2023-04-08T14:09:52;102497.22;;;17.65;50.96
71907;BME280;59781;52.090;5.030;2023-04-08T14:12:18;102487.81;;;17.29;48.43
71907;BME280;59781;52.090;5.030;2023-04-08T14:14:44;102492.31;;;18.23;48.18
71907;BME280;59781;52.090;5.030;2023-04-08T14:17:10;102489.47;;;18.39;48.04
71907;BME280;59781;52.090;5.030;2023-04-08T14:19:35;102488.31;;;18.11;41.18
71907;BME280;59781;52.090;5.030;2023-04-08T14:22:01;102481.97;;;16.92;43.30
71907;BME280;59781;52.090;5.030;2023-04-08T14:24:27;102484.66;;;17.01;41.90
71907;BME280;59781;52.090;5.030;2023-04-08T14:26:53;102479.94;;;16.78;42.74
71907;BME280;59781;52.090;5.030;2023-04-08T14:29:18;102479.91;;;17.50;42.43
71907;BME280;59781;52.090;5.030;2023-04-08T14:31:44;102467.88;;;17.36;45.04
71907;BME280;59781;52.090;5.030;2023-04-08T14:34:10;102472.44;;;16.88;47.12
71907;BME280;59781;52.090;5.030;2023-04-08T14:36:36;102478.88;;;17.12;41.37
71907;BME280;59781;52.090;5.030;2023-04-08T14:39:01;102470.00;;;17.10;40.33
71907;BME280;59781;52.090;5.030;2023-04-08T14:41:27;102477.13;;;17.58;39.60
71907;BME280;59781;52.090;5.030;2023-04-08T14:43:53;102470.34;;;17.07;40.94
71907;BME280;59781;52.090;5.030;2023-04-08T14:46:20;102470.59;;;17.36;41.46
71907;BME280;59781;52.090;5.030;2023-04-08T14:48:45;102469.69;;;17.52;42.86
71907;BME280;59781;52.090;5.030;2023-04-08T14:51:11;102471.16;;;17.71;44.25
71907;BME280;59781;52.090;5.030;2023-04-08T14:56:34;102471.56;;;17.91;46.36
71907;BME280;59781;52.090;5.030;2023-04-08T14:59:00;102473.94;;;17.07;47.65
71907;BME280;59781;52.090;5.030;2023-04-08T15:01:26;102483.94;;;17.15;51.46
71907;BME280;59781;52.090;5.030;2023-04-08T15:03:53;102485.69;;;16.26;55.66
71907;BME280;59781;52.090;5.030;2023-04-08T15:06:19;102471.22;;;16.99;58.80
71907;BME280;59781;52.090;5.030;2023-04-08T15:08:46;102479.53;;;17.14;58.04
71907;BME280;59781;52.090;5.030;2023-04-08T15:11:11;102474.16;;;16.65;58.96
71907;BME280;59781;52.090;5.030;2023-04-08T15:13:37;102478.22;;;17.02;58.43
71907;BME280;59781;52.090;5.030;2023-04-08T15:16:03;102476.19;;;16.87;56.46
71907;BME280;59781;52.090;5.030;2023-04-08T15:18:29;102473.47;;;16.14;58.58
71907;BME280;59781;52.090;5.030;2023-04-08T15:20:54;102472.88;;;15.78;62.37
71907;BME280;59781;52.090;5.030;2023-04-08T15:23:20;102468.44;;;15.77;65.35
71907;BME280;59781;52.090;5.030;2023-04-08T15:25:46;102478.25;;;15.70;64.35
71907;BME280;59781;52.090;5.030;2023-04-08T15:28:12;102477.06;;;15.64;66.14
71907;BME280;59781;52.090;5.030;2023-04-08T15:30:38;102476.34;;;16.29;64.25
71907;BME280;59781;52.090;5.030;2023-04-08T15:33:04;102478.69;;;16.08;65.00